createdAt,value
2019-01-30T00:01:52.117Z,98755.91
2019-01-30T00:04:20.191Z,98748.97
2019-01-30T00:06:48.311Z,98745.97
2019-01-30T00:09:16.414Z,98733.26
2019-01-30T00:11:44.438Z,98737.94
2019-01-30T00:14:12.471Z,98725.83
2019-01-30T00:16:40.520Z,98727.95
2019-01-30T00:19:08.516Z,98718.00
2019-01-30T00:21:36.490Z,98717.20
2019-01-30T00:24:04.562Z,98713.73
2019-01-30T00:26:32.656Z,98707.98
2019-01-30T00:29:00.690Z,98704.00
2019-01-30T00:31:28.764Z,98703.58
2019-01-30T00:33:56.862Z,98694.08
2019-01-30T00:36:24.923Z,98691.95
2019-01-30T00:38:53.000Z,98693.25
2019-01-30T00:41:21.041Z,98687.14
2019-01-30T00:43:49.079Z,98686.69
2019-01-30T00:46:17.101Z,98673.66
2019-01-30T00:48:45.121Z,98668.89
2019-01-30T00:51:13.146Z,98663.19
2019-01-30T00:53:41.094Z,98666.72
2019-01-30T00:56:09.271Z,98659.34
2019-01-30T00:58:37.318Z,98657.98
2019-01-30T01:01:05.860Z,98645.37
2019-01-30T01:03:33.879Z,98650.20
2019-01-30T01:06:01.830Z,98641.45
2019-01-30T01:08:29.867Z,98642.78
2019-01-30T01:10:57.885Z,98641.46
2019-01-30T01:13:25.953Z,98640.94
2019-01-30T01:15:54.039Z,98636.64
2019-01-30T01:18:22.065Z,98627.47
2019-01-30T01:20:50.169Z,98623.50
2019-01-30T01:23:18.215Z,98618.34
2019-01-30T01:25:47.069Z,98626.22
2019-01-30T01:28:15.161Z,98628.39
2019-01-30T01:30:43.914Z,98628.83
2019-01-30T01:33:11.911Z,98622.32
2019-01-30T01:35:39.954Z,98620.57
2019-01-30T01:38:07.927Z,98616.68
2019-01-30T01:40:35.924Z,98609.71
2019-01-30T01:43:03.898Z,98604.94
2019-01-30T01:45:31.960Z,98604.95
2019-01-30T01:48:00.058Z,98599.28
2019-01-30T01:50:32.645Z,98604.48
2019-01-30T01:53:00.658Z,98594.05
2019-01-30T01:55:28.712Z,98599.28
2019-01-30T01:57:56.739Z,98593.63
2019-01-30T02:00:34.988Z,98597.53
2019-01-30T02:02:54.791Z,98594.91
2019-01-30T02:05:23.378Z,98586.97
2019-01-30T02:07:51.513Z,98588.30
2019-01-30T02:10:21.079Z,98583.54
2019-01-30T02:12:49.383Z,98585.66
2019-01-30T02:15:19.371Z,98580.36
2019-01-30T02:17:47.441Z,98584.72
2019-01-30T02:20:27.573Z,98582.19
2019-01-30T02:22:55.595Z,98577.77
2019-01-30T02:25:23.577Z,98579.12
2019-01-30T02:27:51.652Z,98577.41
2019-01-30T02:30:21.771Z,98578.27
2019-01-30T02:32:50.189Z,98575.70
2019-01-30T02:35:18.313Z,98569.65
2019-01-30T02:37:48.620Z,98559.13
2019-01-30T02:40:17.530Z,98556.09
2019-01-30T02:42:45.589Z,98553.92
2019-01-30T02:45:15.987Z,98552.19
2019-01-30T02:47:43.992Z,98548.25
2019-01-30T02:50:14.141Z,98550.02
2019-01-30T02:52:42.491Z,98545.23
2019-01-30T02:55:11.790Z,98543.51
2019-01-30T02:57:40.041Z,98540.89
2019-01-30T03:00:11.429Z,98538.75
2019-01-30T03:02:39.526Z,98533.96
2019-01-30T03:05:10.378Z,98532.66
2019-01-30T03:07:38.444Z,98533.53
2019-01-30T03:10:08.283Z,98529.53
2019-01-30T03:12:36.349Z,98533.91
2019-01-30T03:15:05.131Z,98530.89
2019-01-30T03:17:33.100Z,98529.58
2019-01-30T03:20:01.174Z,98530.07
2019-01-30T03:22:29.284Z,98524.42
2019-01-30T03:24:57.242Z,98518.73
2019-01-30T03:27:25.296Z,98512.98
2019-01-30T03:29:53.339Z,98512.91
2019-01-30T03:32:21.418Z,98510.20
2019-01-30T03:34:49.614Z,98502.62
2019-01-30T03:37:17.622Z,98503.86
2019-01-30T03:39:45.675Z,98502.07
2019-01-30T03:42:13.716Z,98495.53
2019-01-30T03:44:41.752Z,98488.53
2019-01-30T03:47:09.862Z,98491.19
2019-01-30T03:49:37.836Z,98484.24
2019-01-30T03:52:05.841Z,98480.80
2019-01-30T03:54:33.822Z,98475.61
2019-01-30T03:57:01.868Z,98484.86
2019-01-30T03:59:29.868Z,98484.48
2019-01-30T04:01:57.936Z,98489.73
2019-01-30T04:04:25.988Z,98474.47
2019-01-30T04:06:53.978Z,98483.65
2019-01-30T04:09:21.998Z,98478.80
2019-01-30T04:11:50.000Z,98475.33
2019-01-30T04:14:17.986Z,98477.11
2019-01-30T04:16:46.041Z,98471.91
2019-01-30T04:19:14.070Z,98475.03
2019-01-30T04:21:42.114Z,98472.48
2019-01-30T04:24:10.149Z,98158.70
2019-01-30T04:26:38.223Z,98457.30
2019-01-30T04:29:06.265Z,98460.36
2019-01-30T04:31:38.272Z,98454.30
2019-01-30T04:34:03.981Z,98449.55
2019-01-30T04:36:32.023Z,98450.88
2019-01-30T04:39:00.199Z,98450.01
2019-01-30T04:41:28.208Z,98444.77
2019-01-30T04:43:56.243Z,98441.31
2019-01-30T04:46:24.266Z,98440.05
2019-01-30T04:48:52.299Z,98444.44
2019-01-30T04:51:20.637Z,98447.45
2019-01-30T04:53:48.682Z,98444.44
2019-01-30T04:56:16.900Z,98441.83
2019-01-30T04:58:44.926Z,98437.91
2019-01-30T05:01:13.028Z,98443.11
2019-01-30T05:03:41.102Z,98442.23
2019-01-30T05:06:09.092Z,98436.92
2019-01-30T05:08:37.110Z,98432.17
2019-01-30T05:11:05.111Z,98428.72
2019-01-30T05:13:33.216Z,98431.33
2019-01-30T05:16:01.256Z,98429.16
2019-01-30T05:18:29.249Z,98425.20
2019-01-30T05:20:57.269Z,98427.41
2019-01-30T05:23:25.301Z,98420.02
2019-01-30T05:25:53.441Z,98419.05
2019-01-30T05:28:21.455Z,98418.66
2019-01-30T05:30:49.457Z,98417.77
2019-01-30T05:33:17.499Z,98411.62
2019-01-30T05:35:45.493Z,98416.70
2019-01-30T05:38:13.569Z,98411.64
2019-01-30T05:40:41.585Z,98418.39
2019-01-30T05:43:09.563Z,98409.32
2019-01-30T05:45:37.607Z,98403.97
2019-01-30T05:48:05.572Z,98410.86
2019-01-30T05:50:33.575Z,98404.73
2019-01-30T05:53:01.543Z,98399.55
2019-01-30T05:55:29.594Z,98399.27
2019-01-30T05:57:57.580Z,98396.28
2019-01-30T06:00:42.309Z,98402.86
2019-01-30T06:03:10.323Z,98399.83
2019-01-30T06:05:38.307Z,98405.96
2019-01-30T06:08:06.410Z,98398.56
2019-01-30T06:10:34.498Z,98396.81
2019-01-30T06:13:02.613Z,98396.84
2019-01-30T06:18:25.031Z,98383.66
2019-01-30T06:20:53.109Z,98387.08
2019-01-30T06:23:21.105Z,98393.05
2019-01-30T06:25:49.102Z,98387.86
2019-01-30T06:28:17.079Z,98381.09
2019-01-30T06:30:45.075Z,98383.52
2019-01-30T06:33:13.049Z,98369.63
2019-01-30T06:35:41.141Z,98375.91
2019-01-30T06:38:09.127Z,98377.93
2019-01-30T06:40:37.120Z,98384.07
2019-01-30T06:43:05.133Z,98383.51
2019-01-30T06:45:33.190Z,98386.56
2019-01-30T06:48:01.262Z,98380.40
2019-01-30T06:50:29.305Z,98379.61
2019-01-30T06:52:57.353Z,98376.06
2019-01-30T06:55:25.378Z,98379.90
2019-01-30T06:57:53.534Z,98378.17
2019-01-30T07:00:23.310Z,98381.51
2019-01-30T07:02:51.382Z,98381.56
2019-01-30T07:05:19.481Z,98380.20
2019-01-30T07:07:47.658Z,98373.02
2019-01-30T07:10:18.166Z,98367.38
2019-01-30T07:12:46.174Z,98367.95
2019-01-30T07:15:14.337Z,98363.11
2019-01-30T07:17:42.372Z,98361.11
2019-01-30T07:20:10.802Z,98365.15
2019-01-30T07:22:38.806Z,98369.88
2019-01-30T07:25:08.020Z,98363.63
2019-01-30T07:27:36.045Z,98367.05
2019-01-30T07:30:04.259Z,98363.98
2019-01-30T07:32:41.922Z,98359.45
2019-01-30T07:35:02.044Z,98353.56
2019-01-30T07:37:30.144Z,98347.83
2019-01-30T07:39:58.369Z,98348.58
2019-01-30T07:42:26.419Z,98343.60
2019-01-30T07:44:54.465Z,98342.54
2019-01-30T07:47:22.542Z,98337.88
2019-01-30T07:49:50.637Z,98334.08
2019-01-30T07:52:20.090Z,98346.42
2019-01-30T07:54:48.117Z,98340.97
2019-01-30T07:57:16.219Z,98343.77
2019-01-30T07:59:44.308Z,98344.31
2019-01-30T08:02:12.333Z,98340.45
2019-01-30T08:04:40.263Z,98333.45
2019-01-30T08:07:08.285Z,98331.70
2019-01-30T08:09:36.271Z,98326.59
2019-01-30T08:12:04.404Z,98335.16
2019-01-30T08:14:32.400Z,98335.89
2019-01-30T08:17:00.506Z,98324.95
2019-01-30T08:19:28.481Z,98322.83
2019-01-30T08:21:56.598Z,98320.16
2019-01-30T08:24:24.624Z,98321.34
2019-01-30T08:26:53.193Z,98319.17
2019-01-30T08:29:21.420Z,98317.58
2019-01-30T08:31:49.530Z,98316.08
2019-01-30T08:34:17.460Z,98311.30
2019-01-30T08:36:45.463Z,98309.07
2019-01-30T08:39:13.440Z,98309.09
2019-01-30T08:41:41.492Z,98308.14
2019-01-30T08:44:09.471Z,98308.73
2019-01-30T08:46:37.605Z,98306.70
2019-01-30T08:49:05.679Z,98306.61
2019-01-30T08:51:33.760Z,98308.84
2019-01-30T08:54:01.845Z,98305.23
2019-01-30T08:56:29.807Z,98313.03
2019-01-30T08:58:57.871Z,98318.17
2019-01-30T09:01:25.953Z,98311.39
2019-01-30T09:03:53.987Z,98306.04
2019-01-30T09:06:22.037Z,98306.25
2019-01-30T09:08:50.120Z,98306.83
2019-01-30T09:11:18.090Z,98305.70
2019-01-30T09:13:46.165Z,98305.99
2019-01-30T09:16:14.142Z,98305.89
2019-01-30T09:18:42.207Z,98302.10
2019-01-30T09:21:10.272Z,98300.16
2019-01-30T09:23:38.432Z,98307.23
2019-01-30T09:26:06.475Z,98297.06
2019-01-30T09:28:34.532Z,98299.70
2019-01-30T09:31:02.674Z,98290.94
2019-01-30T09:33:30.705Z,98294.70
2019-01-30T09:35:58.722Z,98296.02
2019-01-30T09:38:26.734Z,98294.36
2019-01-30T09:40:54.733Z,98290.81
2019-01-30T09:43:22.725Z,98289.34
2019-01-30T09:45:50.754Z,98286.37
2019-01-30T09:48:18.770Z,98283.64
2019-01-30T09:50:46.790Z,98283.19
2019-01-30T09:53:14.919Z,98275.98
2019-01-30T09:55:42.903Z,98272.77
2019-01-30T09:58:11.000Z,98277.62
2019-01-30T10:00:39.104Z,98290.30
2019-01-30T10:03:07.170Z,98295.08
2019-01-30T10:05:35.370Z,98297.25
2019-01-30T10:08:03.410Z,98297.90
2019-01-30T10:10:36.005Z,98295.02
2019-01-30T10:13:04.630Z,98294.47
2019-01-30T10:18:41.667Z,98290.19
2019-01-30T10:21:09.699Z,98289.67
2019-01-30T10:23:37.919Z,98285.01
2019-01-30T10:26:05.957Z,98282.09
2019-01-30T10:28:34.085Z,98289.59
2019-01-30T10:31:02.286Z,98282.36
2019-01-30T10:33:30.504Z,98280.30
2019-01-30T10:35:58.676Z,98269.43
2019-01-30T10:38:26.934Z,98273.06
2019-01-30T10:40:54.957Z,98269.91
2019-01-30T10:43:23.105Z,98269.55
2019-01-30T10:45:51.331Z,98270.03
2019-01-30T10:48:19.541Z,98272.45
2019-01-30T10:50:48.839Z,98267.56
2019-01-30T10:53:16.910Z,98267.62
2019-01-30T10:55:45.085Z,98266.02
2019-01-30T10:58:15.702Z,98270.72
2019-01-30T11:00:46.183Z,98266.26
2019-01-30T11:03:14.519Z,98270.36
2019-01-30T11:05:44.339Z,98260.56
2019-01-30T11:08:12.395Z,98259.09
2019-01-30T11:10:40.626Z,98258.55
2019-01-30T11:13:08.693Z,98251.72
2019-01-30T11:15:36.900Z,98253.64
2019-01-30T11:18:06.737Z,98251.56
2019-01-30T11:20:34.851Z,98251.37
2019-01-30T11:23:02.881Z,98243.31
2019-01-30T11:25:33.358Z,98238.05
2019-01-30T11:28:02.132Z,98241.53
2019-01-30T11:30:30.206Z,98235.08
2019-01-30T11:32:58.307Z,98235.84
2019-01-30T11:35:26.297Z,98229.33
2019-01-30T11:37:54.428Z,98228.50
2019-01-30T11:40:22.642Z,98226.56
2019-01-30T11:42:50.772Z,98220.04
2019-01-30T11:45:27.041Z,98212.96
2019-01-30T11:47:55.269Z,98213.45
2019-01-30T11:50:23.306Z,98204.92
2019-01-30T11:52:51.493Z,98206.47
2019-01-30T11:55:19.794Z,98206.12
2019-01-30T11:57:48.173Z,98203.84
2019-01-30T12:03:12.241Z,98203.11
2019-01-30T12:05:40.955Z,98198.46
2019-01-30T12:08:09.303Z,98192.58
2019-01-30T12:10:37.335Z,98194.36
2019-01-30T12:13:05.583Z,98195.97
2019-01-30T12:15:33.830Z,98193.19
2019-01-30T12:18:02.266Z,98194.28
2019-01-30T12:20:30.799Z,98193.31
2019-01-30T12:22:58.893Z,98187.41
2019-01-30T12:25:26.982Z,98190.86
2019-01-30T12:27:55.120Z,98185.03
2019-01-30T12:30:24.722Z,98185.89
2019-01-30T12:32:52.956Z,98191.61
2019-01-30T12:35:21.021Z,98193.77
2019-01-30T12:37:49.195Z,98202.13
2019-01-30T12:40:18.373Z,98191.38
2019-01-30T12:42:46.517Z,98190.84
2019-01-30T12:45:20.242Z,98193.30
2019-01-30T12:47:48.360Z,98192.38
2019-01-30T12:50:16.446Z,98192.88
2019-01-30T12:52:44.640Z,98193.91
2019-01-30T12:55:12.767Z,98192.38
2019-01-30T12:57:40.884Z,98194.77
2019-01-30T13:00:12.315Z,98188.67
2019-01-30T13:02:40.387Z,98186.90
2019-01-30T13:05:08.467Z,98184.52
2019-01-30T13:07:36.548Z,98191.02
2019-01-30T13:10:05.802Z,98179.16
2019-01-30T13:12:33.888Z,98173.76
2019-01-30T13:15:01.957Z,98182.80
2019-01-30T13:17:30.067Z,98180.27
2019-01-30T13:20:01.944Z,98178.34
2019-01-30T13:22:30.003Z,98181.83
2019-01-30T13:24:58.082Z,98175.59
2019-01-30T13:27:26.104Z,98173.84
2019-01-30T13:29:54.253Z,98166.83
2019-01-30T13:32:22.725Z,98169.83
2019-01-30T13:34:50.807Z,98171.25
2019-01-30T13:37:18.916Z,98167.41
2019-01-30T13:39:47.102Z,98169.78
2019-01-30T13:42:15.138Z,98171.77
2019-01-30T13:44:43.265Z,98170.95
2019-01-30T13:47:11.468Z,98176.93
2019-01-30T13:49:39.623Z,98175.19
2019-01-30T13:52:07.703Z,98176.78
2019-01-30T13:54:35.838Z,98176.00
2019-01-30T13:57:03.862Z,98173.37
2019-01-30T13:59:32.198Z,98175.89
2019-01-30T14:02:00.286Z,98180.57
2019-01-30T14:04:28.486Z,98176.77
2019-01-30T14:06:56.503Z,98178.84
2019-01-30T14:09:24.735Z,98177.48
2019-01-30T14:11:52.799Z,98179.68
2019-01-30T14:14:20.910Z,98179.50
2019-01-30T14:16:49.083Z,98178.34
2019-01-30T14:19:17.296Z,98171.34
2019-01-30T14:21:45.323Z,98164.36
2019-01-30T14:24:13.399Z,98165.48
2019-01-30T14:26:41.433Z,98165.61
2019-01-30T14:29:09.640Z,98166.78
2019-01-30T14:31:37.743Z,98165.27
2019-01-30T14:34:06.041Z,98166.08
2019-01-30T14:36:34.203Z,98170.82
2019-01-30T14:39:02.275Z,98168.72
2019-01-30T14:41:30.821Z,98172.25
2019-01-30T14:43:58.933Z,98170.94
2019-01-30T14:46:26.919Z,98167.97
2019-01-30T14:48:55.049Z,98172.98
2019-01-30T14:51:23.156Z,98172.41
2019-01-30T14:53:51.316Z,98173.62
2019-01-30T14:56:19.509Z,98179.90
2019-01-30T14:58:47.527Z,98177.69
2019-01-30T15:01:15.662Z,98184.88
2019-01-30T15:03:43.795Z,98182.20
2019-01-30T15:06:11.798Z,98176.73
2019-01-30T15:08:39.926Z,98179.30
2019-01-30T15:11:08.036Z,98180.78
2019-01-30T15:13:36.145Z,98182.59
2019-01-30T15:16:04.940Z,98181.00
2019-01-30T15:18:33.221Z,98189.20
2019-01-30T15:21:02.030Z,98186.54
2019-01-30T15:23:30.125Z,98187.64
2019-01-30T15:25:58.421Z,98195.42
2019-01-30T15:28:26.522Z,98192.13
2019-01-30T15:30:54.728Z,98194.89
2019-01-30T15:33:22.983Z,98194.73
2019-01-30T15:35:51.098Z,98193.96
2019-01-30T15:38:20.920Z,98195.72
2019-01-30T15:40:49.301Z,98194.53
2019-01-30T15:43:17.439Z,98189.84
2019-01-30T15:45:45.696Z,98192.84
2019-01-30T15:48:13.718Z,98194.63
2019-01-30T15:50:42.562Z,98187.82
2019-01-30T15:53:13.310Z,98189.39
2019-01-30T15:55:43.343Z,98184.52
2019-01-30T15:58:12.372Z,98185.33
2019-01-30T16:00:43.237Z,98189.28
2019-01-30T16:03:11.312Z,98189.25
2019-01-30T16:05:45.151Z,98184.94
2019-01-30T16:08:09.887Z,98184.08
2019-01-30T16:10:38.190Z,98182.13
2019-01-30T16:13:06.502Z,98180.13
2019-01-30T16:15:55.344Z,98185.11
2019-01-30T16:18:23.432Z,98181.73
2019-01-30T16:20:52.584Z,98177.42
2019-01-30T16:23:20.742Z,98183.19
2019-01-30T16:25:48.780Z,98180.59
2019-01-30T16:28:36.032Z,98177.11
2019-01-30T16:31:04.582Z,98182.62
2019-01-30T16:33:32.697Z,98181.77
2019-01-30T16:36:00.995Z,98180.66
2019-01-30T16:38:29.067Z,98188.78
2019-01-30T16:40:57.187Z,98184.47
2019-01-30T16:43:25.229Z,98183.66
2019-01-30T16:45:53.307Z,98182.09
2019-01-30T16:48:21.695Z,98184.77
2019-01-30T16:50:49.753Z,98190.35
2019-01-30T16:53:18.087Z,98190.67
2019-01-30T16:55:46.154Z,98188.03
2019-01-30T16:58:14.236Z,98193.52
2019-01-30T17:00:42.825Z,98196.15
2019-01-30T17:03:11.733Z,98200.49
2019-01-30T17:05:40.010Z,98198.14
2019-01-30T17:08:08.542Z,98196.18
2019-01-30T17:10:37.179Z,98194.47
2019-01-30T17:13:05.996Z,98197.86
2019-01-30T17:15:34.413Z,98203.05
2019-01-30T17:18:02.685Z,98200.20
2019-01-30T17:20:33.350Z,98208.47
2019-01-30T17:23:00.682Z,98207.97
2019-01-30T17:25:29.024Z,98212.14
2019-01-30T17:27:57.525Z,98212.93
2019-01-30T17:30:49.348Z,98212.81
2019-01-30T17:33:17.926Z,98216.59
2019-01-30T17:35:46.161Z,98210.89
2019-01-30T17:38:14.471Z,98215.09
2019-01-30T17:40:43.075Z,98209.72
2019-01-30T17:43:11.387Z,98216.41
2019-01-30T17:45:39.463Z,98214.02
2019-01-30T17:48:08.415Z,98218.27
2019-01-30T17:50:36.754Z,98214.94
2019-01-30T17:53:05.069Z,98221.16
2019-01-30T17:55:33.311Z,98222.11
2019-01-30T17:58:01.518Z,98223.70
2019-01-30T18:00:37.958Z,98225.56
2019-01-30T18:03:06.079Z,98220.85
2019-01-30T18:05:34.608Z,98221.88
2019-01-30T18:08:02.820Z,98216.83
2019-01-30T18:10:31.019Z,98220.23
2019-01-30T18:12:59.275Z,98220.32
2019-01-30T18:15:27.368Z,98223.07
2019-01-30T18:17:55.520Z,98221.62
2019-01-30T18:20:23.689Z,98226.34
2019-01-30T18:22:51.963Z,98220.58
2019-01-30T18:25:20.112Z,98221.22
2019-01-30T18:27:48.248Z,98225.75
2019-01-30T18:30:17.695Z,98224.67
2019-01-30T18:32:45.852Z,98222.59
2019-01-30T18:35:14.297Z,98221.09
2019-01-30T18:37:42.675Z,98232.72
2019-01-30T18:40:13.773Z,98226.69
2019-01-30T18:42:42.181Z,98231.63
2019-01-30T18:45:13.154Z,98230.64
2019-01-30T18:47:41.443Z,98227.41
2019-01-30T18:50:12.681Z,98231.08
2019-01-30T18:52:41.943Z,98237.48
2019-01-30T18:55:10.607Z,98230.27
2019-01-30T18:57:39.958Z,98233.95
2019-01-30T19:00:21.341Z,98228.58
2019-01-30T19:02:49.913Z,98230.27
2019-01-30T19:05:18.275Z,98234.23
2019-01-30T19:07:47.041Z,98237.32
2019-01-30T19:10:16.313Z,98235.28
2019-01-30T19:12:45.335Z,98239.42
2019-01-30T19:15:17.809Z,98237.12
2019-01-30T19:17:46.132Z,98246.34
2019-01-30T19:20:20.110Z,98245.16
2019-01-30T19:22:49.223Z,98247.30
2019-01-30T19:25:18.585Z,98246.80
2019-01-30T19:27:47.451Z,98250.30
2019-01-30T19:30:22.146Z,98250.98
2019-01-30T19:32:51.678Z,98247.89
2019-01-30T19:35:20.935Z,98253.03
2019-01-30T19:37:50.024Z,98250.13
2019-01-30T19:40:19.206Z,98258.55
2019-01-30T19:42:48.094Z,98260.50
2019-01-30T19:45:18.749Z,98263.91
2019-01-30T19:47:48.452Z,98266.45
2019-01-30T19:50:19.901Z,98269.87
2019-01-30T19:52:48.940Z,98267.67
2019-01-30T19:55:18.107Z,98270.59
2019-01-30T19:57:47.852Z,98272.95
2019-01-30T20:00:20.004Z,98275.09
2019-01-30T20:02:48.744Z,98277.72
2019-01-30T20:05:17.935Z,98279.50
2019-01-30T20:07:46.422Z,98280.45
2019-01-30T20:10:23.763Z,98281.18
2019-01-30T20:12:52.757Z,98273.67
2019-01-30T20:15:22.033Z,98287.53
2019-01-30T20:17:51.012Z,98290.14
2019-01-30T20:20:21.264Z,98287.53
2019-01-30T20:22:51.539Z,98292.54
2019-01-30T20:25:23.081Z,98293.66
2019-01-30T20:27:52.467Z,98295.70
2019-01-30T20:30:22.189Z,98298.16
2019-01-30T20:32:51.292Z,98301.52
2019-01-30T20:35:19.873Z,98295.50
2019-01-30T20:37:48.191Z,98305.25
2019-01-30T20:40:21.942Z,98308.25
2019-01-30T20:42:52.895Z,98312.33
2019-01-30T20:45:33.020Z,98311.15
2019-01-30T20:47:52.530Z,98312.63
2019-01-30T20:50:24.109Z,98319.22
2019-01-30T20:52:52.435Z,98328.73
2019-01-30T20:55:21.747Z,98323.37
2019-01-30T20:57:50.977Z,98326.53
2019-01-30T21:00:39.316Z,98334.23
2019-01-30T21:03:08.831Z,98335.15
2019-01-30T21:05:37.922Z,98331.94
2019-01-30T21:08:08.652Z,98338.53
2019-01-30T21:10:37.915Z,98327.45
2019-01-30T21:13:08.168Z,98335.56
2019-01-30T21:15:36.570Z,98339.94
2019-01-30T21:18:05.995Z,98340.23
2019-01-30T21:20:34.659Z,98337.12
2019-01-30T21:23:02.741Z,98349.62
2019-01-30T21:25:30.940Z,98347.47
2019-01-30T21:27:59.013Z,98347.84
2019-01-30T21:30:32.025Z,98357.06
2019-01-30T21:33:00.249Z,98361.62
2019-01-30T21:35:28.323Z,98358.55
2019-01-30T21:37:56.413Z,98359.81
2019-01-30T21:40:24.712Z,98365.30
2019-01-30T21:42:53.403Z,98365.02
2019-01-30T21:45:22.874Z,98369.58
2019-01-30T21:47:50.912Z,98371.66
2019-01-30T21:50:19.968Z,98375.73
2019-01-30T21:52:48.294Z,98381.38
2019-01-30T21:55:18.806Z,98379.19
2019-01-30T21:57:46.888Z,98383.88
2019-01-30T22:00:34.596Z,98372.85
2019-01-30T22:03:02.942Z,98373.93
2019-01-30T22:05:31.021Z,98376.08
2019-01-30T22:08:01.371Z,98373.13
2019-01-30T22:10:29.951Z,98376.16
2019-01-30T22:12:58.188Z,98373.34
2019-01-30T22:15:26.328Z,98380.20
2019-01-30T22:17:54.374Z,98390.58
2019-01-30T22:20:24.297Z,98386.86
2019-01-30T22:22:52.287Z,98396.47
2019-01-30T22:25:21.011Z,98398.53
2019-01-30T22:27:49.117Z,98398.61
2019-01-30T22:30:37.579Z,98399.62
2019-01-30T22:33:05.774Z,98407.91
2019-01-30T22:35:33.950Z,98403.31
2019-01-30T22:38:12.327Z,98402.88
2019-01-30T22:40:32.246Z,98416.64
2019-01-30T22:43:00.383Z,98427.00
2019-01-30T22:45:28.399Z,98422.94
2019-01-30T22:47:56.410Z,98423.63
2019-01-30T22:50:24.581Z,98432.72
2019-01-30T22:52:53.221Z,98424.31
2019-01-30T22:55:22.445Z,98430.13
2019-01-30T22:57:51.412Z,98432.58
2019-01-30T23:03:42.428Z,98439.94
2019-01-30T23:06:41.669Z,98435.03
2019-01-30T23:09:50.309Z,98441.04
2019-01-30T23:12:56.336Z,98443.79
2019-01-30T23:15:50.867Z,98447.11
2019-01-30T23:19:05.765Z,98450.84
2019-01-30T23:21:44.565Z,98446.97
2019-01-30T23:24:50.872Z,98443.56
2019-01-30T23:27:43.043Z,98451.31
2019-01-30T23:30:58.217Z,98452.12
2019-01-30T23:34:04.123Z,98456.39
2019-01-30T23:37:11.202Z,98446.95
2019-01-30T23:40:13.821Z,98454.36
2019-01-30T23:43:20.137Z,98446.84
2019-01-30T23:46:20.010Z,98439.52
2019-01-30T23:49:25.048Z,98442.06
2019-01-30T23:52:31.346Z,98439.01
2019-01-30T23:55:37.606Z,98448.05
2019-01-30T23:58:44.076Z,98445.50
